createdAt,value
2017-05-05T00:01:00.948Z,95509.94
2017-05-05T00:02:22.722Z,95508.48
2017-05-05T00:03:44.606Z,95508.34
2017-05-05T00:05:06.477Z,95505.58
2017-05-05T00:06:28.281Z,95510.69
2017-05-05T00:07:50.055Z,95507.04
2017-05-05T00:09:11.960Z,95510.95
2017-05-05T00:10:33.742Z,95512.26
2017-05-05T00:11:55.823Z,95513.53
2017-05-05T00:13:17.678Z,95508.66
2017-05-05T00:14:40.554Z,95507.2
2017-05-05T00:16:02.447Z,95508.37
2017-05-05T00:17:24.216Z,95507.06
2017-05-05T00:18:46.501Z,95508.69
2017-05-05T00:20:09.035Z,95508.03
2017-05-05T00:21:30.838Z,95506.03
2017-05-05T00:22:52.690Z,95507.09
2017-05-05T00:24:14.475Z,95508.28
2017-05-05T00:25:36.230Z,95507.17
2017-05-05T00:26:58.100Z,95510.66
2017-05-05T00:28:20.005Z,95506.22
2017-05-05T00:29:42.064Z,95508.3
2017-05-05T00:31:03.732Z,95510.01
2017-05-05T00:32:26.626Z,95506.05
2017-05-05T00:33:48.444Z,95507.19
2017-05-05T00:35:10.209Z,95506.08
2017-05-05T00:36:33.027Z,95511.03
2017-05-05T00:37:55.254Z,95507.73
2017-05-05T00:39:17.118Z,95508.43
2017-05-05T00:40:38.907Z,95504.8
2017-05-05T00:42:00.679Z,95506.42
2017-05-05T00:43:22.542Z,95510.02
2017-05-05T00:44:45.309Z,95508.75
2017-05-05T00:46:07.186Z,95509.19
2017-05-05T00:47:28.963Z,95510.02
2017-05-05T00:48:50.852Z,95509.94
2017-05-05T00:50:12.798Z,95504.58
2017-05-05T00:51:34.849Z,95509.45
2017-05-05T00:52:57.022Z,95506.97
2017-05-05T00:54:18.904Z,95509.8
2017-05-05T00:55:40.665Z,95503.25
2017-05-05T00:57:02.531Z,95510.31
2017-05-05T00:58:24.386Z,95504.87
2017-05-05T00:59:46.245Z,95504.47
2017-05-05T01:01:07.999Z,95502.84
2017-05-05T01:02:29.797Z,95504.55
2017-05-05T01:03:52.566Z,95504.71
2017-05-05T01:05:14.378Z,95505.39
2017-05-05T01:06:36.134Z,95504.5
2017-05-05T01:07:57.874Z,95506.6
2017-05-05T01:09:19.732Z,95512.72
2017-05-05T01:10:41.704Z,95508.68
2017-05-05T01:12:04.555Z,95508.54
2017-05-05T01:13:28.425Z,95511.3
2017-05-05T01:14:50.180Z,95508.21
2017-05-05T01:16:12.133Z,95511.08
2017-05-05T01:17:33.945Z,95511.64
2017-05-05T01:18:55.761Z,95506.97
2017-05-05T01:20:18.550Z,95513.19
2017-05-05T01:21:40.442Z,95511.27
2017-05-05T01:23:02.295Z,95512.72
2017-05-05T01:24:24.197Z,95513.05
2017-05-05T01:25:46.360Z,95514.53
2017-05-05T01:27:10.255Z,95516.08
2017-05-05T01:28:32.205Z,95521.59
2017-05-05T01:29:53.979Z,95516.56
2017-05-05T01:31:15.839Z,95518.7
2017-05-05T01:32:38.629Z,95523.08
2017-05-05T01:34:05.422Z,95519.78
2017-05-05T01:35:27.182Z,95523.34
2017-05-05T01:36:49.939Z,95525.78
2017-05-05T01:38:11.829Z,95521.72
2017-05-05T01:39:33.610Z,95524.98
2017-05-05T01:40:55.359Z,95526.37
2017-05-05T01:42:17.157Z,95527.5
2017-05-05T01:43:38.990Z,95527.5
2017-05-05T01:45:00.735Z,95527.69
2017-05-05T01:46:22.471Z,95524.61
2017-05-05T01:47:44.226Z,95524.52
2017-05-05T01:49:06.043Z,95529.31
2017-05-05T01:50:27.850Z,95527.42
2017-05-05T01:51:50.706Z,95528.64
2017-05-05T01:53:13.490Z,95528.64
2017-05-05T01:54:36.337Z,95526.71
2017-05-05T01:55:58.151Z,95531.91
2017-05-05T01:57:19.927Z,95531.26
2017-05-05T01:58:42.706Z,95531.58
2017-05-05T02:00:04.638Z,95532.5
2017-05-05T02:01:26.851Z,95532.91
2017-05-05T02:02:49.016Z,95532.8
2017-05-05T02:04:10.793Z,95534.69
2017-05-05T02:05:33.580Z,95539.2
2017-05-05T02:06:57.383Z,95540.02
2017-05-05T02:08:19.127Z,95537
2017-05-05T02:09:40.888Z,95530.86
2017-05-05T02:11:02.791Z,95535.67
2017-05-05T02:12:26.576Z,95533.81
2017-05-05T02:13:48.337Z,95534.22
2017-05-05T02:15:10.111Z,95535.01
2017-05-05T02:16:32.907Z,95531.84
2017-05-05T02:17:54.781Z,95532.98
2017-05-05T02:19:16.573Z,95534.19
2017-05-05T02:20:38.419Z,95534.28
2017-05-05T02:22:00.183Z,95534.17
2017-05-05T02:23:21.927Z,95535.3
2017-05-05T02:24:43.800Z,95537.42
2017-05-05T02:27:37.345Z,95537.72
2017-05-05T02:28:59.123Z,95539.23
2017-05-05T02:30:20.886Z,95539
2017-05-05T02:31:43.691Z,95542.73
2017-05-05T02:33:06.665Z,95539.41
2017-05-05T02:34:28.953Z,95543.3
2017-05-05T02:35:51.171Z,95541.3
2017-05-05T02:37:12.975Z,95541.38
2017-05-05T02:38:35.867Z,95537.8
2017-05-05T02:39:57.644Z,95539.53
2017-05-05T02:41:20.427Z,95540.17
2017-05-05T02:42:42.185Z,95537.2
2017-05-05T02:44:03.985Z,95539.39
2017-05-05T02:45:25.769Z,95543.64
2017-05-05T02:46:47.589Z,95543.93
2017-05-05T02:48:09.343Z,95541.82
2017-05-05T02:49:31.201Z,95548.23
2017-05-05T02:50:54.007Z,95542.49
2017-05-05T02:52:15.857Z,95541.3
2017-05-05T02:53:37.643Z,95540.33
2017-05-05T02:54:59.432Z,95543.48
2017-05-05T02:56:21.270Z,95545.19
2017-05-05T02:57:42.979Z,95543.97
2017-05-05T02:59:04.783Z,95542.92
2017-05-05T03:00:27.725Z,95545.11
2017-05-05T03:01:50.456Z,95543.47
2017-05-05T03:03:13.250Z,95545.39
2017-05-05T03:04:35.025Z,95547.34
2017-05-05T03:07:06.541Z,95548.31
2017-05-05T03:08:29.383Z,95549.86
2017-05-05T03:09:51.588Z,95553.27
2017-05-05T03:11:13.606Z,95548.89
2017-05-05T03:12:35.381Z,95551.64
2017-05-05T03:13:57.120Z,95550.64
2017-05-05T03:15:18.924Z,95549.05
2017-05-05T03:16:40.800Z,95552.08
2017-05-05T03:18:02.652Z,95551.19
2017-05-05T03:19:24.500Z,95550.89
2017-05-05T03:20:47.290Z,95553.87
2017-05-05T03:22:09.165Z,95555.17
2017-05-05T03:23:31.029Z,95554.27
2017-05-05T03:24:53.925Z,95553.88
2017-05-05T03:26:15.792Z,95556.23
2017-05-05T03:27:37.676Z,95558.02
2017-05-05T03:28:59.516Z,95559.61
2017-05-05T03:30:21.288Z,95558.31
2017-05-05T03:31:43.148Z,95560.02
2017-05-05T03:33:05.014Z,95566.19
2017-05-05T03:34:27.770Z,95558.64
2017-05-05T03:35:50.585Z,95565.52
2017-05-05T03:37:12.366Z,95563.64
2017-05-05T03:38:34.219Z,95567.3
2017-05-05T03:39:55.984Z,95567.69
2017-05-05T03:41:18.769Z,95573.37
2017-05-05T03:42:40.678Z,95569.55
2017-05-05T03:44:02.603Z,95570.99
2017-05-05T03:45:24.329Z,95570.09
2017-05-05T03:46:46.132Z,95570.42
2017-05-05T03:48:07.992Z,95568.8
2017-05-05T03:49:30.789Z,95570.91
2017-05-05T03:50:52.551Z,95571.31
2017-05-05T03:52:14.325Z,95573.98
2017-05-05T03:53:36.067Z,95576.59
2017-05-05T03:54:58.847Z,95579.44
2017-05-05T03:56:20.637Z,95582.08
2017-05-05T03:57:42.397Z,95582.44
2017-05-05T03:59:04.156Z,95580.55
2017-05-05T04:00:26.028Z,95581.25
2017-05-05T04:01:47.767Z,95584.83
2017-05-05T04:03:09.496Z,95582.77
2017-05-05T04:04:31.308Z,95579.77
2017-05-05T04:05:53.092Z,95583.56
2017-05-05T04:07:14.821Z,95581.94
2017-05-05T04:08:38.604Z,95585
2017-05-05T04:10:01.443Z,95585.08
2017-05-05T04:11:23.229Z,95586.14
2017-05-05T04:12:45.097Z,95585.63
2017-05-05T04:14:06.977Z,95586.2
2017-05-05T04:15:28.818Z,95580.73
2017-05-05T04:16:50.585Z,95587.05
2017-05-05T04:18:12.458Z,95588.89
2017-05-05T04:19:34.773Z,95590.17
2017-05-05T04:20:56.719Z,95590.96
2017-05-05T04:22:19.662Z,95592.08
2017-05-05T04:23:41.441Z,95593.27
2017-05-05T04:25:03.197Z,95597.28
2017-05-05T04:26:25.997Z,95595.61
2017-05-05T04:27:47.770Z,95598.62
2017-05-05T04:29:09.528Z,95596.16
2017-05-05T04:30:31.407Z,95597.87
2017-05-05T04:31:53.205Z,95598.09
2017-05-05T04:33:16.197Z,95597.88
2017-05-05T04:34:38.012Z,95603.9
2017-05-05T04:36:01.974Z,95603.8
2017-05-05T04:37:24.848Z,95605.38
2017-05-05T04:38:46.781Z,95607.91
2017-05-05T04:40:08.618Z,95606.34
2017-05-05T04:41:31.465Z,95608.87
2017-05-05T04:42:53.301Z,95610.05
2017-05-05T04:44:15.180Z,95610.64
2017-05-05T04:45:37.995Z,95606.16
2017-05-05T04:47:00.860Z,95609.44
2017-05-05T04:48:22.754Z,95611.5
2017-05-05T04:49:44.679Z,95610.94
2017-05-05T04:51:06.471Z,95611.88
2017-05-05T04:52:29.470Z,95615.05
2017-05-05T04:53:51.794Z,95616.45
2017-05-05T04:55:15.067Z,95613.34
2017-05-05T04:56:36.820Z,95618.39
2017-05-05T04:57:58.550Z,95622.78
2017-05-05T04:59:20.325Z,95621.91
2017-05-05T05:00:42.183Z,95623.08
2017-05-05T05:02:04.070Z,95625.58
2017-05-05T05:03:25.939Z,95624.28
2017-05-05T05:04:47.795Z,95627.09
2017-05-05T05:06:09.753Z,95628.95
2017-05-05T05:07:34.587Z,95631.14
2017-05-05T05:08:58.407Z,95628.11
2017-05-05T05:10:20.257Z,95634.02
2017-05-05T05:11:42.044Z,95630.7
2017-05-05T05:13:03.904Z,95632.66
2017-05-05T05:14:25.657Z,95632.08
2017-05-05T05:15:48.544Z,95637.19
2017-05-05T05:17:10.504Z,95634.34
2017-05-05T05:18:32.397Z,95634.84
2017-05-05T05:19:54.226Z,95634.5
2017-05-05T05:21:16.133Z,95637.46
2017-05-05T05:22:38.073Z,95636.63
2017-05-05T05:23:59.854Z,95641.73
2017-05-05T05:25:21.662Z,95641.78
2017-05-05T05:26:43.360Z,95642.48
2017-05-05T05:28:05.603Z,95641.63
2017-05-05T05:29:27.882Z,95644.81
2017-05-05T05:32:21.392Z,95645.72
2017-05-05T05:33:43.274Z,95644.83
2017-05-05T05:35:05.026Z,95648.69
2017-05-05T05:36:27.796Z,95644.95
2017-05-05T05:37:49.576Z,95647.51
2017-05-05T05:39:11.957Z,95646.07
2017-05-05T05:40:33.731Z,95649.62
2017-05-05T05:41:55.578Z,95650.77
2017-05-05T05:43:17.351Z,95654.51
2017-05-05T05:44:39.235Z,95658.19
2017-05-05T05:46:00.995Z,95656.55
2017-05-05T05:47:22.838Z,95659.83
2017-05-05T05:48:44.717Z,95661.84
2017-05-05T05:50:06.679Z,95661.25
2017-05-05T05:51:28.548Z,95661.89
2017-05-05T05:52:51.343Z,95661.07
2017-05-05T05:54:13.208Z,95659.84
2017-05-05T05:55:34.984Z,95660.72
2017-05-05T05:56:56.928Z,95656.52
2017-05-05T05:58:18.711Z,95661.23
2017-05-05T05:59:40.461Z,95657.64
2017-05-05T06:01:02.191Z,95660.13
2017-05-05T06:02:24.208Z,95661.92
2017-05-05T06:03:46.451Z,95666.52
2017-05-05T06:05:08.683Z,95664.86
2017-05-05T06:06:30.760Z,95658.81
2017-05-05T06:07:53.310Z,95662.38
2017-05-05T06:09:15.059Z,95659.53
2017-05-05T06:10:36.923Z,95657.22
2017-05-05T06:11:58.920Z,95663.63
2017-05-05T06:13:20.692Z,95658.42
2017-05-05T06:14:42.568Z,95660.33
2017-05-05T06:16:04.400Z,95665.41
2017-05-05T06:17:26.265Z,95663.48
2017-05-05T06:18:48.134Z,95664.66
2017-05-05T06:20:09.918Z,95664.27
2017-05-05T06:21:31.660Z,95666.41
2017-05-05T06:22:53.443Z,95668.2
2017-05-05T06:24:15.308Z,95670.97
2017-05-05T06:25:37.084Z,95669.11
2017-05-05T06:26:58.996Z,95672.66
2017-05-05T06:28:20.782Z,95680.8
2017-05-05T06:29:42.552Z,95679.83
2017-05-05T06:31:05.383Z,95675.98
2017-05-05T06:32:27.214Z,95678.31
2017-05-05T06:33:49.087Z,95676.6
2017-05-05T06:35:10.930Z,95679.7
2017-05-05T06:36:32.655Z,95685.19
2017-05-05T06:37:54.882Z,95688.03
2017-05-05T06:39:18.136Z,95686.45
2017-05-05T06:40:40.073Z,95682.25
2017-05-05T06:42:01.922Z,95689.45
2017-05-05T06:43:24.654Z,95687.56
2017-05-05T06:44:46.561Z,95692.54
2017-05-05T06:46:08.293Z,95692.75
2017-05-05T06:47:30.110Z,95696.28
2017-05-05T06:48:51.801Z,95694.18
2017-05-05T06:50:13.629Z,95695.61
2017-05-05T06:51:35.381Z,95696.11
2017-05-05T06:52:57.148Z,95698.19
2017-05-05T06:54:18.907Z,95692.55
2017-05-05T06:55:40.642Z,95697.42
2017-05-05T06:57:03.474Z,95698.16
2017-05-05T06:58:25.231Z,95697.53
2017-05-05T06:59:47.105Z,95696.05
2017-05-05T07:01:08.886Z,95700.08
2017-05-05T07:02:30.735Z,95696.08
2017-05-05T07:03:52.509Z,95700.52
2017-05-05T07:05:14.271Z,95700.77
2017-05-05T07:06:36.103Z,95697.69
2017-05-05T07:07:57.894Z,95695.59
2017-05-05T07:09:19.816Z,95695.25
2017-05-05T07:10:44.093Z,95693.16
2017-05-05T07:12:06.062Z,95694.11
2017-05-05T07:13:28.150Z,95698.75
2017-05-05T07:14:55.858Z,95694.67
2017-05-05T07:16:52.176Z,95695.88
2017-05-05T07:18:42.617Z,95692.3
2017-05-05T07:20:09.844Z,95693.99
2017-05-05T07:21:36.873Z,95693.58
2017-05-05T07:23:04.843Z,95691.67
2017-05-05T07:24:33.274Z,95696.48
2017-05-05T07:26:01.808Z,95698.27
2017-05-05T07:27:53.264Z,95702.92
2017-05-05T07:29:45.434Z,95696.88
2017-05-05T07:31:37.022Z,95701.64
2017-05-05T07:33:29.748Z,95702.37
2017-05-05T07:35:24.972Z,95698.72
2017-05-05T07:37:16.347Z,95697.95
2017-05-05T07:39:06.682Z,95692.13
2017-05-05T07:40:58.949Z,95691.54
2017-05-05T07:42:51.315Z,95683.58
2017-05-05T07:44:44.434Z,95685.36
2017-05-05T07:46:35.268Z,95685.53
2017-05-05T07:48:26.499Z,95683.62
2017-05-05T07:50:17.322Z,95681.19
2017-05-05T07:52:06.636Z,95687.88
2017-05-05T07:53:56.010Z,95685.13
2017-05-05T07:55:35.009Z,95685.41
2017-05-05T07:56:56.814Z,95689.66
2017-05-05T07:58:18.685Z,95692.58
2017-05-05T07:59:40.464Z,95691.61
2017-05-05T08:01:02.231Z,95698.77
2017-05-05T08:02:23.919Z,95700.02
2017-05-05T08:03:45.750Z,95695.7
2017-05-05T08:05:07.615Z,95696.41
2017-05-05T08:06:29.457Z,95699.9
2017-05-05T08:07:51.229Z,95702.06
2017-05-05T08:09:13.005Z,95698.8
2017-05-05T08:10:34.866Z,95699.25
2017-05-05T08:11:56.652Z,95699.59
2017-05-05T08:13:18.509Z,95696.17
2017-05-05T08:14:40.368Z,95698.23
2017-05-05T08:16:02.234Z,95697.19
2017-05-05T08:17:23.989Z,95697.77
2017-05-05T08:18:45.877Z,95702.86
2017-05-05T08:20:07.776Z,95697.33
2017-05-05T08:21:34.777Z,95699.36
2017-05-05T08:22:56.689Z,95695.17
2017-05-05T08:24:18.778Z,95695.47
2017-05-05T08:25:40.923Z,95700.5
2017-05-05T08:27:02.750Z,95704.09
2017-05-05T08:28:24.565Z,95699.69
2017-05-05T08:29:46.423Z,95700.88
2017-05-05T08:31:08.384Z,95703.2
2017-05-05T08:32:30.210Z,95704.68
2017-05-05T08:33:52.014Z,95705.79
2017-05-05T08:35:13.876Z,95709.37
2017-05-05T08:36:35.661Z,95709.3
2017-05-05T08:37:57.580Z,95711.58
2017-05-05T08:39:19.483Z,95717.3
2017-05-05T08:40:42.372Z,95720.94
2017-05-05T08:42:04.364Z,95721.17
2017-05-05T08:43:26.721Z,95722.3
2017-05-05T08:44:48.588Z,95718.42
2017-05-05T08:46:10.359Z,95718.45
2017-05-05T08:47:32.208Z,95720.41
2017-05-05T08:48:54.099Z,95719.16
2017-05-05T08:50:15.956Z,95721.52
2017-05-05T08:51:37.818Z,95720.75
2017-05-05T08:52:59.669Z,95723.09
2017-05-05T08:54:21.552Z,95714.23
2017-05-05T08:55:43.408Z,95714.6
2017-05-05T08:57:05.187Z,95714.24
2017-05-05T08:58:27.049Z,95713.86
2017-05-05T08:59:49.013Z,95717.95
2017-05-05T09:01:11.094Z,95721.8
2017-05-05T09:02:34.690Z,95720.16
2017-05-05T09:03:57.597Z,95716.86
2017-05-05T09:05:19.375Z,95717.55
2017-05-05T09:06:41.368Z,95721.24
2017-05-05T09:08:03.574Z,95721.55
2017-05-05T09:09:25.476Z,95716.83
2017-05-05T09:10:47.224Z,95715.65
2017-05-05T09:12:09.201Z,95714.02
2017-05-05T09:13:31.064Z,95714.31
2017-05-05T09:14:52.924Z,95715.2
2017-05-05T09:16:14.787Z,95720.54
2017-05-05T09:17:36.671Z,95716.19
2017-05-05T09:18:58.443Z,95715.95
2017-05-05T09:20:20.386Z,95723.39
2017-05-05T09:21:42.205Z,95721.18
2017-05-05T09:23:04.071Z,95727.86
2017-05-05T09:24:26.005Z,95731.44
2017-05-05T09:25:47.855Z,95730.29
2017-05-05T09:27:09.630Z,95732.02
2017-05-05T09:28:31.536Z,95729.96
2017-05-05T09:29:53.368Z,95731.51
2017-05-05T09:31:15.124Z,95735.16
2017-05-05T09:32:36.899Z,95731.41
2017-05-05T09:33:58.862Z,95733.13
2017-05-05T09:35:20.839Z,95732.34
2017-05-05T09:36:42.739Z,95733.75
2017-05-05T09:38:04.663Z,95736.88
2017-05-05T09:39:26.568Z,95731.18
2017-05-05T09:40:48.506Z,95729.83
2017-05-05T09:42:10.284Z,95726.95
2017-05-05T09:43:32.136Z,95719.05
2017-05-05T09:44:53.900Z,95718.74
2017-05-05T09:46:15.668Z,95722.23
2017-05-05T09:47:37.494Z,95723.08
2017-05-05T09:48:59.310Z,95723.61
2017-05-05T09:50:21.296Z,95725.87
2017-05-05T09:51:43.189Z,95728.39
2017-05-05T09:53:05.112Z,95727.61
2017-05-05T09:54:26.977Z,95732.09
2017-05-05T09:55:48.934Z,95728.94
2017-05-05T09:57:10.695Z,95728.24
2017-05-05T09:58:32.569Z,95730.53
2017-05-05T09:59:54.430Z,95729.78
2017-05-05T10:01:16.310Z,95730.16
2017-05-05T10:02:38.677Z,95728.86
2017-05-05T10:04:01.393Z,95725.78
2017-05-05T10:05:23.231Z,95723.77
2017-05-05T10:06:45.299Z,95727.56
2017-05-05T10:08:07.099Z,95724.14
2017-05-05T10:09:28.948Z,95721.34
2017-05-05T10:10:51.839Z,95716.34
2017-05-05T10:12:13.604Z,95709.48
2017-05-05T10:13:35.666Z,95695.61
2017-05-05T10:14:57.874Z,95659.56
2017-05-05T10:16:19.911Z,95651.6
2017-05-05T10:17:41.818Z,95667.01
2017-05-05T10:19:03.915Z,95678.62
2017-05-05T10:20:25.685Z,95679.5
2017-05-05T10:21:47.506Z,95679.56
2017-05-05T10:23:09.343Z,95685.59
2017-05-05T10:24:31.076Z,95690.8
2017-05-05T10:25:52.980Z,95687.13
2017-05-05T10:27:14.937Z,95669.67
2017-05-05T10:28:37.715Z,95668.84
2017-05-05T10:29:59.508Z,95661.47
2017-05-05T10:31:21.358Z,95661.81
2017-05-05T10:32:43.051Z,95660.56
2017-05-05T10:34:04.889Z,95658.53
2017-05-05T10:35:26.719Z,95656.2
2017-05-05T10:36:48.618Z,95650.07
2017-05-05T10:38:10.508Z,95652.14
2017-05-05T10:39:32.393Z,95660.23
2017-05-05T10:40:54.220Z,95663.33
2017-05-05T10:42:16.042Z,95669.5
2017-05-05T10:43:37.859Z,95665.14
2017-05-05T10:44:59.616Z,95656.58
2017-05-05T10:46:21.336Z,95663.75
2017-05-05T10:47:43.287Z,95663.33
2017-05-05T10:49:05.421Z,95662.15
2017-05-05T10:50:27.667Z,95668.98
2017-05-05T10:51:49.551Z,95666.34
2017-05-05T10:53:11.279Z,95663.94
2017-05-05T10:54:33.014Z,95669.53
2017-05-05T10:55:54.857Z,95671.95
2017-05-05T10:57:16.634Z,95679.44
2017-05-05T10:58:38.493Z,95677.02
2017-05-05T11:00:00.344Z,95688.41
2017-05-05T11:01:22.256Z,95686.86
2017-05-05T11:02:44.105Z,95685.3
2017-05-05T11:04:05.873Z,95689.45
2017-05-05T11:05:27.651Z,95691.35
2017-05-05T11:06:49.558Z,95691.5
2017-05-05T11:08:11.922Z,95695.34
2017-05-05T11:09:33.711Z,95692.23
2017-05-05T11:10:55.527Z,95689.64
2017-05-05T11:12:17.318Z,95692.5
2017-05-05T11:13:48.847Z,95693.06
2017-05-05T11:15:10.715Z,95695.86
2017-05-05T11:16:33.507Z,95689.86
2017-05-05T11:17:59.507Z,95694.17
2017-05-05T11:19:22.604Z,95692.25
2017-05-05T11:20:44.423Z,95696.34
2017-05-05T11:22:06.172Z,95693.55
2017-05-05T11:23:28.245Z,95695.05
2017-05-05T11:24:50.175Z,95691.31
2017-05-05T11:26:12.198Z,95691.17
2017-05-05T11:27:33.973Z,95687.17
2017-05-05T11:28:55.829Z,95684.92
2017-05-05T11:30:17.730Z,95683.16
2017-05-05T11:31:39.593Z,95682.86
2017-05-05T11:33:01.433Z,95678.7
2017-05-05T11:34:23.283Z,95682.46
2017-05-05T11:35:45.058Z,95674.83
2017-05-05T11:37:06.848Z,95675.02
2017-05-05T11:38:28.591Z,95669.98
2017-05-05T11:39:51.583Z,95650.4
2017-05-05T11:41:13.453Z,95630.02
2017-05-05T11:42:35.318Z,95665.03
2017-05-05T11:43:57.171Z,95670.96
2017-05-05T11:45:19.065Z,95668.83
2017-05-05T11:46:40.915Z,95670.59
2017-05-05T11:48:02.805Z,95667.78
2017-05-05T11:49:24.636Z,95671.09
2017-05-05T11:50:46.425Z,95675.2
2017-05-05T11:52:08.185Z,95674.22
2017-05-05T11:53:30.198Z,95680.53
2017-05-05T11:54:52.010Z,95675.73
2017-05-05T11:56:13.883Z,95676.52
2017-05-05T11:57:35.745Z,95684.45
2017-05-05T11:58:57.610Z,95670.73
2017-05-05T12:00:19.459Z,95673.55
2017-05-05T12:01:41.339Z,95686.91
2017-05-05T12:03:03.196Z,95688.06
2017-05-05T12:04:25.217Z,95672.66
2017-05-05T12:05:47.161Z,95666.09
2017-05-05T12:07:09.030Z,95670.63
2017-05-05T12:08:30.789Z,95676.59
2017-05-05T12:09:52.563Z,95688.44
2017-05-05T12:11:14.412Z,95681.38
2017-05-05T12:12:36.286Z,95684.68
2017-05-05T12:13:58.038Z,95677.55
2017-05-05T12:15:19.912Z,95685.11
2017-05-05T12:16:41.693Z,95671.41
2017-05-05T12:18:03.590Z,95684.25
2017-05-05T12:19:25.402Z,95678.67
2017-05-05T12:20:47.169Z,95680
2017-05-05T12:22:08.928Z,95661.19
2017-05-05T12:23:30.827Z,95660.72
2017-05-05T12:24:52.820Z,95658.15
2017-05-05T12:26:14.630Z,95663.13
2017-05-05T12:27:36.863Z,95667.84
2017-05-05T12:28:58.687Z,95668.81
2017-05-05T12:30:20.550Z,95666.66
2017-05-05T12:31:42.415Z,95668.52
2017-05-05T12:33:04.138Z,95672.58
2017-05-05T12:34:26.132Z,95672.25
2017-05-05T12:35:47.900Z,95675.23
2017-05-05T12:37:09.708Z,95675.77
2017-05-05T12:38:31.512Z,95672.94
2017-05-05T12:39:53.500Z,95673.95
2017-05-05T12:41:15.344Z,95679.02
2017-05-05T12:42:37.250Z,95677.17
2017-05-05T12:43:59.081Z,95666.17
2017-05-05T12:45:20.892Z,95665.08
2017-05-05T12:46:42.723Z,95670.95
2017-05-05T12:48:04.506Z,95669.22
2017-05-05T12:49:26.359Z,95660.59
2017-05-05T12:50:48.248Z,95650.69
2017-05-05T12:52:10.114Z,95653.94
2017-05-05T12:53:31.955Z,95653.1
2017-05-05T12:54:53.732Z,95655.17
2017-05-05T12:56:15.512Z,95651.49
2017-05-05T12:57:37.354Z,95654.19
2017-05-05T12:59:05.392Z,95647.34
2017-05-05T13:00:27.249Z,95649.13
2017-05-05T13:01:49.074Z,95653.44
2017-05-05T13:03:10.883Z,95642.41
2017-05-05T13:04:32.655Z,95635.87
2017-05-05T13:05:54.493Z,95642.66
2017-05-05T13:07:16.308Z,95626.36
2017-05-05T13:08:38.075Z,95644.14
2017-05-05T13:09:59.890Z,95638.39
2017-05-05T13:11:21.752Z,95633.59
2017-05-05T13:12:43.680Z,95638.45
2017-05-05T13:14:05.487Z,95636.39
2017-05-05T13:15:27.270Z,95611.37
2017-05-05T13:16:49.025Z,95614.88
2017-05-05T13:18:10.924Z,95616.11
2017-05-05T13:19:32.921Z,95620.64
2017-05-05T13:20:54.721Z,95622.45
2017-05-05T13:22:16.507Z,95642.53
2017-05-05T13:23:38.345Z,95630.47
2017-05-05T13:25:00.122Z,95637.66
2017-05-05T13:26:22.004Z,95605.81
2017-05-05T13:27:43.749Z,95634.25
2017-05-05T13:29:05.524Z,95634.21
2017-05-05T13:30:27.319Z,95611.72
2017-05-05T13:31:49.244Z,95617.78
2017-05-05T13:33:11.011Z,95611.63
2017-05-05T13:34:32.893Z,95610.72
2017-05-05T13:35:54.749Z,95615.47
2017-05-05T13:37:16.616Z,95619.11
2017-05-05T13:38:38.480Z,95618.2
2017-05-05T13:40:00.354Z,95634.24
2017-05-05T13:41:22.185Z,95634.66
2017-05-05T13:42:43.971Z,95632.27
2017-05-05T13:44:05.680Z,95624.49
2017-05-05T13:45:27.509Z,95613.36
2017-05-05T13:46:49.368Z,95616.33
2017-05-05T13:48:11.242Z,95608.94
2017-05-05T13:49:33.029Z,95607.37
2017-05-05T13:50:54.862Z,95627.52
2017-05-05T13:52:16.593Z,95613.61
2017-05-05T13:53:38.397Z,95615.89
2017-05-05T13:55:00.380Z,95595.28
2017-05-05T13:56:22.381Z,95612.33
2017-05-05T13:57:44.206Z,95598.95
2017-05-05T13:59:06.079Z,95590.11
2017-05-05T14:00:27.917Z,95598.15
2017-05-05T14:01:49.811Z,95594.7
2017-05-05T14:03:11.578Z,95588.14
2017-05-05T14:04:33.457Z,95589.05
2017-05-05T14:05:55.326Z,95585.3
2017-05-05T14:07:17.180Z,95580.44
2017-05-05T14:08:40.361Z,95587.22
2017-05-05T14:10:03.974Z,95591.79
2017-05-05T14:11:25.849Z,95586.69
2017-05-05T14:12:47.629Z,95580.03
2017-05-05T14:14:09.438Z,95577.44
2017-05-05T14:15:31.229Z,95577.89
2017-05-05T14:16:53.104Z,95575.25
2017-05-05T14:18:15.177Z,95577.55
2017-05-05T14:19:37.049Z,95574.08
2017-05-05T14:20:58.907Z,95575.95
2017-05-05T14:22:20.775Z,95574.05
2017-05-05T14:23:42.754Z,95574.8
2017-05-05T14:25:04.528Z,95561
2017-05-05T14:26:26.292Z,95571.73
2017-05-05T14:27:48.027Z,95561.33
2017-05-05T14:29:09.899Z,95559.66
2017-05-05T14:30:33.037Z,95558.14
2017-05-05T14:31:54.905Z,95560.98
2017-05-05T14:33:16.711Z,95568.52
2017-05-05T14:34:38.515Z,95568.58
2017-05-05T14:36:00.390Z,95567.3
2017-05-05T14:37:22.336Z,95563.34
2017-05-05T14:38:47.608Z,95565.62
2017-05-05T14:40:09.423Z,95569.51
2017-05-05T14:41:31.213Z,95564.34
2017-05-05T14:42:53.003Z,95558.49
2017-05-05T14:44:16.514Z,95553.29
2017-05-05T14:45:38.653Z,95553.89
2017-05-05T14:47:32.611Z,95548.11
2017-05-05T14:48:54.840Z,95548.48
2017-05-05T14:50:16.700Z,95545.08
2017-05-05T14:51:38.551Z,95538.53
2017-05-05T14:53:00.432Z,95539.87
2017-05-05T14:54:22.219Z,95549.81
2017-05-05T14:55:44.071Z,95553.93
2017-05-05T14:57:05.917Z,95551.23
2017-05-05T14:58:27.710Z,95548.14
2017-05-05T14:59:49.708Z,95545.48
2017-05-05T15:01:11.558Z,95545.42
2017-05-05T15:02:33.432Z,95545.47
2017-05-05T15:03:55.279Z,95541.83
2017-05-05T15:05:18.772Z,95542.37
2017-05-05T15:06:40.735Z,95544.38
2017-05-05T15:08:02.926Z,95541.61
2017-05-05T15:09:24.691Z,95540.37
2017-05-05T15:10:46.735Z,95542.52
2017-05-05T15:12:08.809Z,95542.3
2017-05-05T15:13:30.636Z,95544.06
2017-05-05T15:14:53.469Z,95543.55
2017-05-05T15:16:15.240Z,95543.81
2017-05-05T15:17:37.111Z,95543.14
2017-05-05T15:18:58.955Z,95540.55
2017-05-05T15:20:20.740Z,95539.38
2017-05-05T15:21:42.525Z,95541.22
2017-05-05T15:23:04.416Z,95541.02
2017-05-05T15:24:26.234Z,95541.38
2017-05-05T15:25:48.089Z,95539.8
2017-05-05T15:27:09.855Z,95545.16
2017-05-05T15:28:31.720Z,95542.75
2017-05-05T15:29:53.600Z,95545.05
2017-05-05T15:31:15.507Z,95546.28
2017-05-05T15:32:37.315Z,95547.05
2017-05-05T15:33:59.301Z,95551.5
2017-05-05T15:35:21.569Z,95549.36
2017-05-05T15:36:43.330Z,95548.89
2017-05-05T15:38:05.139Z,95548.11
2017-05-05T15:39:27.100Z,95546.94
2017-05-05T15:40:48.930Z,95544.97
2017-05-05T15:42:10.798Z,95547.58
2017-05-05T15:43:32.659Z,95545.13
2017-05-05T15:44:56.527Z,95544.72
2017-05-05T15:46:18.433Z,95545.08
2017-05-05T15:47:40.327Z,95552.16
2017-05-05T15:49:02.391Z,95548.61
2017-05-05T15:50:24.308Z,95554.31
2017-05-05T15:51:46.136Z,95548.02
2017-05-05T15:53:07.975Z,95552.99
2017-05-05T15:54:29.763Z,95546.89
2017-05-05T15:55:51.630Z,95547.97
2017-05-05T15:57:13.480Z,95548.3
2017-05-05T15:58:35.245Z,95545.84
2017-05-05T15:59:57.110Z,95546.29
2017-05-05T16:01:18.988Z,95547.39
2017-05-05T16:02:40.836Z,95542.15
2017-05-05T16:04:02.718Z,95544.84
2017-05-05T16:05:26.132Z,95545.38
2017-05-05T16:06:48.082Z,95545.09
2017-05-05T16:08:09.955Z,95543.98
2017-05-05T16:09:31.816Z,95546.02
2017-05-05T16:10:53.707Z,95541.16
2017-05-05T16:12:15.563Z,95542.64
2017-05-05T16:13:37.377Z,95543.28
2017-05-05T16:14:59.195Z,95544.48
2017-05-05T16:16:20.983Z,95541.38
2017-05-05T16:17:42.817Z,95540.8
2017-05-05T16:19:05.498Z,95542.71
2017-05-05T16:20:27.271Z,95542.39